sensor_id;sensor_type;location;lat;lon;timestamp;pressure;altitude;pressure_sealevel;temperature;humidity
13968;BME280;39536;52.198;9.920;2023-09-18T00:01:57;100147.84;;;21.72;100.00
13968;BME280;39536;52.198;9.920;2023-09-18T00:04:25;100144.22;;;21.73;100.00
13968;BME280;39536;52.198;9.920;2023-09-18T00:06:52;100145.00;;;21.64;100.00
13968;BME280;39536;52.198;9.920;2023-09-18T00:09:18;100144.63;;;21.68;100.00
13968;BME280;39536;52.198;9.920;2023-09-18T00:11:45;100140.28;;;21.67;100.00
13968;BME280;39536;52.198;9.920;2023-09-18T00:14:12;100132.63;;;21.74;100.00
13968;BME280;39536;52.198;9.920;2023-09-18T00:16:38;100121.34;;;21.72;100.00
13968;BME280;39536;52.198;9.920;2023-09-18T00:19:05;100110.16;;;21.68;100.00
13968;BME280;39536;52.198;9.920;2023-09-18T00:21:34;100104.94;;;21.57;100.00
13968;BME280;39536;52.198;9.920;2023-09-18T00:24:01;100103.91;;;21.49;100.00
13968;BME280;39536;52.198;9.920;2023-09-18T00:26:28;100104.72;;;21.28;100.00
13968;BME280;39536;52.198;9.920;2023-09-18T00:28:55;100100.47;;;21.16;100.00
13968;BME280;39536;52.198;9.920;2023-09-18T00:31:21;100094.38;;;21.04;100.00
13968;BME280;39536;52.198;9.920;2023-09-18T00:33:48;100085.63;;;20.92;100.00
13968;BME280;39536;52.198;9.920;2023-09-18T00:36:14;100085.38;;;20.95;100.00
13968;BME280;39536;52.198;9.920;2023-09-18T00:38:42;100078.03;;;20.99;100.00
13968;BME280;39536;52.198;9.920;2023-09-18T00:41:09;100076.31;;;21.09;100.00
13968;BME280;39536;52.198;9.920;2023-09-18T00:43:36;100073.50;;;21.11;100.00
13968;BME280;39536;52.198;9.920;2023-09-18T00:46:03;100082.69;;;21.07;100.00
13968;BME280;39536;52.198;9.920;2023-09-18T00:48:29;100064.41;;;21.04;100.00
13968;BME280;39536;52.198;9.920;2023-09-18T00:50:56;100062.59;;;21.04;100.00
13968;BME280;39536;52.198;9.920;2023-09-18T00:53:23;100055.16;;;20.98;100.00
13968;BME280;39536;52.198;9.920;2023-09-18T00:55:54;100058.47;;;20.90;100.00
13968;BME280;39536;52.198;9.920;2023-09-18T00:58:22;100059.41;;;20.89;100.00
13968;BME280;39536;52.198;9.920;2023-09-18T01:00:49;100051.09;;;20.94;100.00
13968;BME280;39536;52.198;9.920;2023-09-18T01:03:16;100044.69;;;20.96;100.00
13968;BME280;39536;52.198;9.920;2023-09-18T01:05:43;100032.56;;;20.94;100.00
13968;BME280;39536;52.198;9.920;2023-09-18T01:08:10;100023.31;;;20.88;100.00
13968;BME280;39536;52.198;9.920;2023-09-18T01:10:42;100027.91;;;20.86;100.00
13968;BME280;39536;52.198;9.920;2023-09-18T01:13:20;100022.84;;;20.83;100.00
13968;BME280;39536;52.198;9.920;2023-09-18T01:15:52;100022.59;;;20.86;100.00
13968;BME280;39536;52.198;9.920;2023-09-18T01:18:20;100019.00;;;20.87;100.00
13968;BME280;39536;52.198;9.920;2023-09-18T01:20:47;100001.75;;;20.93;100.00
13968;BME280;39536;52.198;9.920;2023-09-18T01:23:15;99999.66;;;20.96;100.00
13968;BME280;39536;52.198;9.920;2023-09-18T01:25:41;99995.25;;;20.97;100.00
13968;BME280;39536;52.198;9.920;2023-09-18T01:28:08;99996.34;;;20.94;100.00
13968;BME280;39536;52.198;9.920;2023-09-18T01:30:35;99995.34;;;20.95;100.00
13968;BME280;39536;52.198;9.920;2023-09-18T01:33:04;99998.72;;;20.97;100.00
13968;BME280;39536;52.198;9.920;2023-09-18T01:35:31;99997.63;;;21.00;100.00
13968;BME280;39536;52.198;9.920;2023-09-18T01:37:58;99996.50;;;21.03;100.00
13968;BME280;39536;52.198;9.920;2023-09-18T01:40:27;99992.84;;;20.94;100.00
13968;BME280;39536;52.198;9.920;2023-09-18T01:42:54;99999.97;;;20.93;100.00
13968;BME280;39536;52.198;9.920;2023-09-18T01:45:20;99989.00;;;20.87;100.00
13968;BME280;39536;52.198;9.920;2023-09-18T01:47:47;99992.78;;;20.84;100.00
13968;BME280;39536;52.198;9.920;2023-09-18T01:50:14;99979.66;;;20.83;100.00
13968;BME280;39536;52.198;9.920;2023-09-18T01:52:40;99985.34;;;20.78;100.00
13968;BME280;39536;52.198;9.920;2023-09-18T01:55:08;99983.28;;;20.82;100.00
13968;BME280;39536;52.198;9.920;2023-09-18T01:57:36;99972.81;;;20.80;100.00
13968;BME280;39536;52.198;9.920;2023-09-18T02:00:03;99968.19;;;20.72;100.00
13968;BME280;39536;52.198;9.920;2023-09-18T02:02:33;99969.28;;;20.70;100.00
13968;BME280;39536;52.198;9.920;2023-09-18T02:04:59;99969.63;;;20.65;100.00
13968;BME280;39536;52.198;9.920;2023-09-18T02:07:27;99961.97;;;20.62;100.00
13968;BME280;39536;52.198;9.920;2023-09-18T02:09:54;99955.25;;;20.58;100.00
13968;BME280;39536;52.198;9.920;2023-09-18T02:12:20;99964.44;;;20.54;100.00
13968;BME280;39536;52.198;9.920;2023-09-18T02:14:48;99963.34;;;20.57;100.00
13968;BME280;39536;52.198;9.920;2023-09-18T02:17:15;99949.13;;;20.58;100.00
13968;BME280;39536;52.198;9.920;2023-09-18T02:19:42;99954.69;;;20.55;100.00
13968;BME280;39536;52.198;9.920;2023-09-18T02:22:09;99945.28;;;20.50;100.00
13968;BME280;39536;52.198;9.920;2023-09-18T02:24:36;99946.50;;;20.46;100.00
13968;BME280;39536;52.198;9.920;2023-09-18T02:27:03;99940.78;;;20.41;100.00
13968;BME280;39536;52.198;9.920;2023-09-18T02:29:30;99941.78;;;20.29;100.00
13968;BME280;39536;52.198;9.920;2023-09-18T02:31:58;99944.53;;;20.27;100.00
13968;BME280;39536;52.198;9.920;2023-09-18T02:34:25;99937.19;;;20.31;100.00
13968;BME280;39536;52.198;9.920;2023-09-18T02:36:51;99939.22;;;20.39;100.00
13968;BME280;39536;52.198;9.920;2023-09-18T02:39:18;99928.84;;;20.47;100.00
13968;BME280;39536;52.198;9.920;2023-09-18T02:41:45;99929.78;;;20.46;100.00
13968;BME280;39536;52.198;9.920;2023-09-18T02:44:11;99921.16;;;20.44;100.00
13968;BME280;39536;52.198;9.920;2023-09-18T02:46:38;99914.75;;;20.46;100.00
13968;BME280;39536;52.198;9.920;2023-09-18T02:49:06;99906.81;;;20.46;100.00
13968;BME280;39536;52.198;9.920;2023-09-18T02:51:32;99914.75;;;20.46;100.00
13968;BME280;39536;52.198;9.920;2023-09-18T02:53:59;99907.78;;;20.45;100.00
13968;BME280;39536;52.198;9.920;2023-09-18T02:56:26;99906.94;;;20.45;100.00
13968;BME280;39536;52.198;9.920;2023-09-18T02:58:52;99906.94;;;20.45;100.00
13968;BME280;39536;52.198;9.920;2023-09-18T03:01:19;99913.91;;;20.46;100.00
13968;BME280;39536;52.198;9.920;2023-09-18T03:03:46;99905.03;;;20.47;100.00
13968;BME280;39536;52.198;9.920;2023-09-18T03:06:14;99895.97;;;20.49;100.00
13968;BME280;39536;52.198;9.920;2023-09-18T03:08:41;99884.22;;;20.42;100.00
13968;BME280;39536;52.198;9.920;2023-09-18T03:11:11;99885.84;;;20.34;100.00
13968;BME280;39536;52.198;9.920;2023-09-18T03:13:43;99881.84;;;20.39;100.00
13968;BME280;39536;52.198;9.920;2023-09-18T03:16:10;99873.19;;;20.37;100.00
13968;BME280;39536;52.198;9.920;2023-09-18T03:18:36;99876.44;;;20.41;100.00
13968;BME280;39536;52.198;9.920;2023-09-18T03:21:03;99876.56;;;20.39;100.00
13968;BME280;39536;52.198;9.920;2023-09-18T03:23:32;99874.31;;;20.35;100.00
13968;BME280;39536;52.198;9.920;2023-09-18T03:25:58;99876.63;;;20.28;100.00
13968;BME280;39536;52.198;9.920;2023-09-18T03:28:25;99876.03;;;20.24;100.00
13968;BME280;39536;52.198;9.920;2023-09-18T03:30:52;99871.59;;;20.25;100.00
13968;BME280;39536;52.198;9.920;2023-09-18T03:33:19;99861.59;;;20.28;100.00
13968;BME280;39536;52.198;9.920;2023-09-18T03:35:46;99857.97;;;20.29;100.00
13968;BME280;39536;52.198;9.920;2023-09-18T03:38:14;99858.75;;;20.20;100.00
13968;BME280;39536;52.198;9.920;2023-09-18T03:40:42;99847.13;;;20.12;100.00
13968;BME280;39536;52.198;9.920;2023-09-18T03:43:10;99838.34;;;20.11;100.00
13968;BME280;39536;52.198;9.920;2023-09-18T03:45:37;99824.66;;;20.06;100.00
13968;BME280;39536;52.198;9.920;2023-09-18T03:48:06;99831.06;;;20.03;100.00
13968;BME280;39536;52.198;9.920;2023-09-18T03:50:32;99827.72;;;20.01;100.00
13968;BME280;39536;52.198;9.920;2023-09-18T03:52:59;99818.38;;;19.97;100.00
13968;BME280;39536;52.198;9.920;2023-09-18T03:55:26;99825.31;;;19.98;100.00
13968;BME280;39536;52.198;9.920;2023-09-18T03:57:54;99806.09;;;19.96;100.00
13968;BME280;39536;52.198;9.920;2023-09-18T04:00:21;99806.94;;;19.97;100.00
13968;BME280;39536;52.198;9.920;2023-09-18T04:02:48;99804.19;;;19.98;100.00
13968;BME280;39536;52.198;9.920;2023-09-18T04:05:14;99788.41;;;19.97;100.00
13968;BME280;39536;52.198;9.920;2023-09-18T04:07:41;99795.09;;;19.91;100.00
13968;BME280;39536;52.198;9.920;2023-09-18T04:10:11;99793.38;;;19.69;100.00
13968;BME280;39536;52.198;9.920;2023-09-18T04:12:43;99784.75;;;19.67;100.00
13968;BME280;39536;52.198;9.920;2023-09-18T04:15:14;99786.66;;;19.65;100.00
13968;BME280;39536;52.198;9.920;2023-09-18T04:17:40;99773.78;;;19.72;100.00
13968;BME280;39536;52.198;9.920;2023-09-18T04:20:08;99772.56;;;19.76;100.00
13968;BME280;39536;52.198;9.920;2023-09-18T04:22:35;99767.66;;;19.71;100.00
13968;BME280;39536;52.198;9.920;2023-09-18T04:25:02;99768.75;;;19.69;100.00
13968;BME280;39536;52.198;9.920;2023-09-18T04:27:30;99761.44;;;19.72;100.00
13968;BME280;39536;52.198;9.920;2023-09-18T04:29:57;99749.63;;;19.76;100.00
13968;BME280;39536;52.198;9.920;2023-09-18T04:32:28;99743.00;;;19.82;100.00
13968;BME280;39536;52.198;9.920;2023-09-18T04:34:55;99735.50;;;19.87;100.00
13968;BME280;39536;52.198;9.920;2023-09-18T04:37:22;99734.53;;;19.88;100.00
13968;BME280;39536;52.198;9.920;2023-09-18T04:39:50;99727.00;;;19.83;100.00
13968;BME280;39536;52.198;9.920;2023-09-18T04:42:17;99725.19;;;19.84;100.00
13968;BME280;39536;52.198;9.920;2023-09-18T04:44:44;99720.16;;;19.81;100.00
13968;BME280;39536;52.198;9.920;2023-09-18T04:47:11;99708.63;;;19.82;100.00
13968;BME280;39536;52.198;9.920;2023-09-18T04:49:39;99700.97;;;19.79;100.00
13968;BME280;39536;52.198;9.920;2023-09-18T04:52:06;99692.00;;;19.91;100.00
13968;BME280;39536;52.198;9.920;2023-09-18T04:54:32;99694.28;;;20.05;100.00
13968;BME280;39536;52.198;9.920;2023-09-18T04:56:59;99685.75;;;20.23;100.00
13968;BME280;39536;52.198;9.920;2023-09-18T04:59:26;99684.56;;;20.46;100.00
13968;BME280;39536;52.198;9.920;2023-09-18T05:01:52;99683.69;;;20.67;100.00
13968;BME280;39536;52.198;9.920;2023-09-18T05:04:19;99671.31;;;20.87;100.00
13968;BME280;39536;52.198;9.920;2023-09-18T05:06:47;99669.53;;;21.07;100.00
13968;BME280;39536;52.198;9.920;2023-09-18T05:09:14;99669.09;;;21.21;100.00
13968;BME280;39536;52.198;9.920;2023-09-18T05:11:41;99657.56;;;21.32;100.00
13968;BME280;39536;52.198;9.920;2023-09-18T05:14:08;99656.75;;;21.41;100.00
13968;BME280;39536;52.198;9.920;2023-09-18T05:16:34;99654.19;;;21.49;100.00
13968;BME280;39536;52.198;9.920;2023-09-18T05:19:02;99649.31;;;21.54;100.00
13968;BME280;39536;52.198;9.920;2023-09-18T05:21:29;99653.22;;;21.60;100.00
13968;BME280;39536;52.198;9.920;2023-09-18T05:23:57;99669.38;;;21.66;100.00
13968;BME280;39536;52.198;9.920;2023-09-18T05:26:24;99677.06;;;21.70;100.00
13968;BME280;39536;52.198;9.920;2023-09-18T05:28:53;99684.84;;;21.81;100.00
13968;BME280;39536;52.198;9.920;2023-09-18T05:31:20;99673.53;;;21.88;100.00
13968;BME280;39536;52.198;9.920;2023-09-18T05:33:47;99678.50;;;22.01;100.00
13968;BME280;39536;52.198;9.920;2023-09-18T05:36:14;99685.59;;;22.20;100.00
13968;BME280;39536;52.198;9.920;2023-09-18T05:38:40;99676.16;;;22.35;100.00
13968;BME280;39536;52.198;9.920;2023-09-18T05:41:09;99674.28;;;22.46;100.00
13968;BME280;39536;52.198;9.920;2023-09-18T05:43:36;99675.41;;;22.53;100.00
13968;BME280;39536;52.198;9.920;2023-09-18T05:46:02;99670.63;;;22.56;100.00
13968;BME280;39536;52.198;9.920;2023-09-18T05:48:29;99671.16;;;22.60;100.00
13968;BME280;39536;52.198;9.920;2023-09-18T05:50:56;99665.25;;;22.66;100.00
13968;BME280;39536;52.198;9.920;2023-09-18T05:53:23;99655.69;;;22.73;100.00
13968;BME280;39536;52.198;9.920;2023-09-18T05:55:50;99650.91;;;22.77;100.00
13968;BME280;39536;52.198;9.920;2023-09-18T05:58:18;99651.78;;;22.77;100.00
13968;BME280;39536;52.198;9.920;2023-09-18T06:00:49;99636.91;;;22.85;100.00
13968;BME280;39536;52.198;9.920;2023-09-18T06:03:16;99647.66;;;22.83;100.00
13968;BME280;39536;52.198;9.920;2023-09-18T06:05:45;99646.53;;;22.86;100.00
13968;BME280;39536;52.198;9.920;2023-09-18T06:08:12;99643.88;;;22.86;100.00
13968;BME280;39536;52.198;9.920;2023-09-18T06:10:38;99642.59;;;22.90;100.00
13968;BME280;39536;52.198;9.920;2023-09-18T06:13:05;99630.16;;;22.90;100.00
13968;BME280;39536;52.198;9.920;2023-09-18T06:15:33;99614.53;;;22.87;100.00
13968;BME280;39536;52.198;9.920;2023-09-18T06:18:00;99594.09;;;22.88;100.00
13968;BME280;39536;52.198;9.920;2023-09-18T06:20:27;99579.00;;;22.88;100.00
13968;BME280;39536;52.198;9.920;2023-09-18T06:22:53;99568.38;;;22.88;100.00
13968;BME280;39536;52.198;9.920;2023-09-18T06:25:20;99570.34;;;22.86;100.00
13968;BME280;39536;52.198;9.920;2023-09-18T06:27:47;99574.81;;;22.86;100.00
13968;BME280;39536;52.198;9.920;2023-09-18T06:30:14;99568.84;;;22.83;100.00
13968;BME280;39536;52.198;9.920;2023-09-18T06:32:42;99563.38;;;22.85;100.00
13968;BME280;39536;52.198;9.920;2023-09-18T06:35:08;99559.41;;;22.89;100.00
13968;BME280;39536;52.198;9.920;2023-09-18T06:37:35;99552.44;;;22.88;100.00
13968;BME280;39536;52.198;9.920;2023-09-18T06:40:02;99554.41;;;22.86;100.00
13968;BME280;39536;52.198;9.920;2023-09-18T06:42:31;99560.88;;;22.83;100.00
13968;BME280;39536;52.198;9.920;2023-09-18T06:44:58;99564.59;;;22.91;100.00
13968;BME280;39536;52.198;9.920;2023-09-18T06:47:26;99559.56;;;22.88;100.00
13968;BME280;39536;52.198;9.920;2023-09-18T06:49:54;99561.75;;;22.92;100.00
13968;BME280;39536;52.198;9.920;2023-09-18T06:52:21;99562.47;;;22.94;100.00
13968;BME280;39536;52.198;9.920;2023-09-18T06:54:47;99570.44;;;22.94;100.00
13968;BME280;39536;52.198;9.920;2023-09-18T06:57:14;99572.63;;;22.99;100.00
13968;BME280;39536;52.198;9.920;2023-09-18T06:59:41;99561.56;;;23.03;100.00
13968;BME280;39536;52.198;9.920;2023-09-18T07:02:07;99565.56;;;23.08;100.00
13968;BME280;39536;52.198;9.920;2023-09-18T07:04:34;99568.09;;;23.09;100.00
13968;BME280;39536;52.198;9.920;2023-09-18T07:07:03;99570.25;;;23.14;100.00
13968;BME280;39536;52.198;9.920;2023-09-18T07:09:30;99578.25;;;23.14;100.00
13968;BME280;39536;52.198;9.920;2023-09-18T07:11:56;99578.41;;;23.12;100.00
13968;BME280;39536;52.198;9.920;2023-09-18T07:14:23;99586.81;;;23.08;100.00
13968;BME280;39536;52.198;9.920;2023-09-18T07:16:50;99587.28;;;23.03;100.00
13968;BME280;39536;52.198;9.920;2023-09-18T07:19:16;99593.88;;;22.99;100.00
13968;BME280;39536;52.198;9.920;2023-09-18T07:21:43;99585.66;;;22.92;100.00
13968;BME280;39536;52.198;9.920;2023-09-18T07:24:11;99590.97;;;22.92;100.00
13968;BME280;39536;52.198;9.920;2023-09-18T07:26:44;99584.84;;;22.92;100.00
13968;BME280;39536;52.198;9.920;2023-09-18T07:29:12;99590.16;;;22.92;100.00
13968;BME280;39536;52.198;9.920;2023-09-18T07:31:40;99583.19;;;22.91;100.00
13968;BME280;39536;52.198;9.920;2023-09-18T07:34:07;99583.72;;;22.94;100.00
13968;BME280;39536;52.198;9.920;2023-09-18T07:36:34;99585.09;;;22.98;100.00
13968;BME280;39536;52.198;9.920;2023-09-18T07:39:00;99595.72;;;22.98;100.00
13968;BME280;39536;52.198;9.920;2023-09-18T07:41:29;99599.06;;;23.00;100.00
13968;BME280;39536;52.198;9.920;2023-09-18T07:43:56;99592.22;;;22.98;100.00
13968;BME280;39536;52.198;9.920;2023-09-18T07:46:23;99604.16;;;22.94;100.00
13968;BME280;39536;52.198;9.920;2023-09-18T07:48:50;99592.22;;;22.98;100.00
13968;BME280;39536;52.198;9.920;2023-09-18T07:51:17;99595.72;;;22.98;100.00
13968;BME280;39536;52.198;9.920;2023-09-18T07:53:44;99601.03;;;22.98;100.00
13968;BME280;39536;52.198;9.920;2023-09-18T07:56:10;99596.72;;;22.97;100.00
13968;BME280;39536;52.198;9.920;2023-09-18T07:58:38;99598.44;;;23.07;100.00
13968;BME280;39536;52.198;9.920;2023-09-18T08:01:05;99597.00;;;23.12;100.00
13968;BME280;39536;52.198;9.920;2023-09-18T08:03:34;99595.69;;;23.16;100.00
13968;BME280;39536;52.198;9.920;2023-09-18T08:06:01;99610.84;;;23.24;100.00
13968;BME280;39536;52.198;9.920;2023-09-18T08:08:30;99605.47;;;23.34;100.00
13968;BME280;39536;52.198;9.920;2023-09-18T08:11:00;99600.19;;;23.42;100.00
13968;BME280;39536;52.198;9.920;2023-09-18T08:13:28;99604.25;;;23.46;100.00
13968;BME280;39536;52.198;9.920;2023-09-18T08:15:56;99620.53;;;23.51;100.00
13968;BME280;39536;52.198;9.920;2023-09-18T08:18:23;99632.53;;;23.55;100.00
13968;BME280;39536;52.198;9.920;2023-09-18T08:20:52;99616.81;;;23.62;100.00
13968;BME280;39536;52.198;9.920;2023-09-18T08:23:19;99640.88;;;23.60;100.00
13968;BME280;39536;52.198;9.920;2023-09-18T08:25:45;99625.22;;;23.57;100.00
13968;BME280;39536;52.198;9.920;2023-09-18T08:28:14;99629.41;;;23.60;100.00
13968;BME280;39536;52.198;9.920;2023-09-18T08:30:41;99630.91;;;23.62;100.00
13968;BME280;39536;52.198;9.920;2023-09-18T08:33:11;99626.56;;;23.61;100.00
13968;BME280;39536;52.198;9.920;2023-09-18T08:35:38;99628.78;;;23.66;100.00
13968;BME280;39536;52.198;9.920;2023-09-18T08:38:04;99622.31;;;23.68;100.00
13968;BME280;39536;52.198;9.920;2023-09-18T08:40:32;99620.34;;;23.70;100.00
13968;BME280;39536;52.198;9.920;2023-09-18T08:43:00;99621.56;;;23.76;100.00
13968;BME280;39536;52.198;9.920;2023-09-18T08:45:33;99627.94;;;23.83;100.00
13968;BME280;39536;52.198;9.920;2023-09-18T08:48:02;99620.81;;;23.92;100.00
13968;BME280;39536;52.198;9.920;2023-09-18T08:50:30;99620.34;;;23.96;100.00
13968;BME280;39536;52.198;9.920;2023-09-18T08:52:57;99614.84;;;23.98;100.00
13968;BME280;39536;52.198;9.920;2023-09-18T08:55:24;99623.03;;;24.05;100.00
13968;BME280;39536;52.198;9.920;2023-09-18T08:57:53;99611.59;;;24.12;100.00
13968;BME280;39536;52.198;9.920;2023-09-18T09:00:20;99621.41;;;24.12;100.00
13968;BME280;39536;52.198;9.920;2023-09-18T09:02:47;99616.59;;;24.15;100.00
13968;BME280;39536;52.198;9.920;2023-09-18T09:05:16;99606.97;;;24.23;100.00
13968;BME280;39536;52.198;9.920;2023-09-18T09:07:45;99615.66;;;24.25;100.00
13968;BME280;39536;52.198;9.920;2023-09-18T09:10:11;99621.16;;;24.31;100.00
13968;BME280;39536;52.198;9.920;2023-09-18T09:12:49;99620.00;;;24.34;100.00
13968;BME280;39536;52.198;9.920;2023-09-18T09:15:16;99613.31;;;24.30;100.00
13968;BME280;39536;52.198;9.920;2023-09-18T09:17:43;99608.66;;;24.32;100.00
13968;BME280;39536;52.198;9.920;2023-09-18T09:20:11;99616.78;;;24.22;100.00
13968;BME280;39536;52.198;9.920;2023-09-18T09:22:39;99627.94;;;24.26;100.00
13968;BME280;39536;52.198;9.920;2023-09-18T09:28:00;99631.75;;;24.15;100.00
13968;BME280;39536;52.198;9.920;2023-09-18T09:30:28;99627.06;;;24.09;100.00
13968;BME280;39536;52.198;9.920;2023-09-18T09:32:57;99631.56;;;24.08;100.00
13968;BME280;39536;52.198;9.920;2023-09-18T09:35:26;99635.22;;;24.15;100.00
13968;BME280;39536;52.198;9.920;2023-09-18T09:37:54;99638.25;;;24.20;100.00
13968;BME280;39536;52.198;9.920;2023-09-18T09:40:25;99638.56;;;24.17;100.00
13968;BME280;39536;52.198;9.920;2023-09-18T09:42:53;99629.09;;;24.15;100.00
13968;BME280;39536;52.198;9.920;2023-09-18T09:45:27;99625.78;;;24.21;100.00
13968;BME280;39536;52.198;9.920;2023-09-18T09:47:57;99631.06;;;24.13;100.00
13968;BME280;39536;52.198;9.920;2023-09-18T09:50:24;99632.84;;;24.04;100.00
13968;BME280;39536;52.198;9.920;2023-09-18T09:52:53;99626.31;;;23.90;100.00
13968;BME280;39536;52.198;9.920;2023-09-18T09:55:22;99624.09;;;23.86;100.00
13968;BME280;39536;52.198;9.920;2023-09-18T09:57:52;99638.41;;;23.85;100.00
13968;BME280;39536;52.198;9.920;2023-09-18T10:00:19;99635.75;;;23.85;100.00
13968;BME280;39536;52.198;9.920;2023-09-18T10:03:00;99637.50;;;23.76;100.00
13968;BME280;39536;52.198;9.920;2023-09-18T10:05:30;99634.41;;;23.81;100.00
13968;BME280;39536;52.198;9.920;2023-09-18T10:07:59;99618.44;;;23.81;100.00
13968;BME280;39536;52.198;9.920;2023-09-18T10:10:30;99633.28;;;23.91;100.00
13968;BME280;39536;52.198;9.920;2023-09-18T10:13:01;99632.81;;;23.96;100.00
13968;BME280;39536;52.198;9.920;2023-09-18T10:15:32;99631.66;;;23.98;100.00
13968;BME280;39536;52.198;9.920;2023-09-18T10:18:10;99628.97;;;23.90;100.00
13968;BME280;39536;52.198;9.920;2023-09-18T10:20:44;99633.28;;;23.91;100.00
13968;BME280;39536;52.198;9.920;2023-09-18T10:23:21;99632.75;;;23.88;100.00
13968;BME280;39536;52.198;9.920;2023-09-18T10:25:57;99627.50;;;23.96;100.00
13968;BME280;39536;52.198;9.920;2023-09-18T10:28:28;99642.28;;;23.98;100.00
13968;BME280;39536;52.198;9.920;2023-09-18T10:30:56;99639.63;;;23.98;100.00
13968;BME280;39536;52.198;9.920;2023-09-18T10:33:26;99637.84;;;24.07;100.00
13968;BME280;39536;52.198;9.920;2023-09-18T10:35:53;99639.56;;;24.16;100.00
13968;BME280;39536;52.198;9.920;2023-09-18T10:38:23;99641.56;;;24.14;100.00
13968;BME280;39536;52.198;9.920;2023-09-18T10:40:51;99646.56;;;24.17;100.00
13968;BME280;39536;52.198;9.920;2023-09-18T10:43:19;99640.63;;;23.97;100.00
13968;BME280;39536;52.198;9.920;2023-09-18T10:45:46;99665.09;;;24.01;100.00
13968;BME280;39536;52.198;9.920;2023-09-18T10:48:14;99653.72;;;23.91;100.00
13968;BME280;39536;52.198;9.920;2023-09-18T10:50:44;99662.41;;;23.93;100.00
13968;BME280;39536;52.198;9.920;2023-09-18T10:53:11;99667.41;;;23.96;100.00
13968;BME280;39536;52.198;9.920;2023-09-18T10:55:39;99668.94;;;24.07;100.00
13968;BME280;39536;52.198;9.920;2023-09-18T10:58:08;99673.03;;;23.93;100.00
13968;BME280;39536;52.198;9.920;2023-09-18T11:00:35;99680.72;;;23.96;100.00
13968;BME280;39536;52.198;9.920;2023-09-18T11:03:13;99691.69;;;24.01;100.00
13968;BME280;39536;52.198;9.920;2023-09-18T11:05:44;99699.69;;;24.01;100.00
13968;BME280;39536;52.198;9.920;2023-09-18T11:08:25;99706.50;;;24.04;100.00
13968;BME280;39536;52.198;9.920;2023-09-18T11:11:00;99713.34;;;24.06;100.00
13968;BME280;39536;52.198;9.920;2023-09-18T11:13:34;99715.53;;;24.11;100.00
13968;BME280;39536;52.198;9.920;2023-09-18T11:16:14;99706.09;;;24.16;100.00
13968;BME280;39536;52.198;9.920;2023-09-18T11:18:40;99697.47;;;24.23;100.00
13968;BME280;39536;52.198;9.920;2023-09-18T11:21:10;99690.69;;;24.28;100.00
13968;BME280;39536;52.198;9.920;2023-09-18T11:23:38;99688.03;;;24.28;100.00
13968;BME280;39536;52.198;9.920;2023-09-18T11:26:08;99695.28;;;24.44;100.00
13968;BME280;39536;52.198;9.920;2023-09-18T11:28:36;99691.00;;;24.59;100.00
13968;BME280;39536;52.198;9.920;2023-09-18T11:31:04;99696.69;;;24.73;100.00
13968;BME280;39536;52.198;9.920;2023-09-18T11:33:32;99704.03;;;24.71;100.00
13968;BME280;39536;52.198;9.920;2023-09-18T11:36:06;99686.69;;;24.66;100.00
13968;BME280;39536;52.198;9.920;2023-09-18T11:38:51;99672.72;;;24.73;100.00
13968;BME280;39536;52.198;9.920;2023-09-18T11:41:23;99677.00;;;24.49;100.00
13968;BME280;39536;52.198;9.920;2023-09-18T11:43:51;99684.81;;;24.42;100.00
13968;BME280;39536;52.198;9.920;2023-09-18T11:46:18;99678.47;;;24.43;100.00
13968;BME280;39536;52.198;9.920;2023-09-18T11:48:48;99688.47;;;24.50;100.00
13968;BME280;39536;52.198;9.920;2023-09-18T11:51:21;99678.28;;;24.45;100.00
13968;BME280;39536;52.198;9.920;2023-09-18T11:53:53;99662.84;;;24.49;100.00
13968;BME280;39536;52.198;9.920;2023-09-18T11:56:21;99660.03;;;24.50;100.00
13968;BME280;39536;52.198;9.920;2023-09-18T11:58:48;99690.97;;;24.51;100.00
13968;BME280;39536;52.198;9.920;2023-09-18T12:01:16;99671.50;;;24.51;100.00
13968;BME280;39536;52.198;9.920;2023-09-18T12:03:42;99679.66;;;24.57;100.00
13968;BME280;39536;52.198;9.920;2023-09-18T12:06:10;99693.22;;;24.72;100.00
13968;BME280;39536;52.198;9.920;2023-09-18T12:08:38;99702.53;;;24.68;100.00
13968;BME280;39536;52.198;9.920;2023-09-18T12:11:07;99697.84;;;24.70;100.00
13968;BME280;39536;52.198;9.920;2023-09-18T12:13:34;99706.84;;;24.69;100.00
13968;BME280;39536;52.198;9.920;2023-09-18T12:16:02;99718.31;;;24.61;100.00
13968;BME280;39536;52.198;9.920;2023-09-18T12:18:30;99719.34;;;24.69;100.00
13968;BME280;39536;52.198;9.920;2023-09-18T12:20:58;99721.34;;;24.75;100.00
13968;BME280;39536;52.198;9.920;2023-09-18T12:23:24;99714.53;;;24.72;100.00
13968;BME280;39536;52.198;9.920;2023-09-18T12:25:57;99707.91;;;24.84;100.00
13968;BME280;39536;52.198;9.920;2023-09-18T12:28:26;99702.06;;;24.81;100.00
13968;BME280;39536;52.198;9.920;2023-09-18T12:30:54;99699.41;;;24.81;100.00
13968;BME280;39536;52.198;9.920;2023-09-18T12:33:21;99684.56;;;24.78;100.00
13968;BME280;39536;52.198;9.920;2023-09-18T12:35:49;99681.59;;;24.81;100.00
13968;BME280;39536;52.198;9.920;2023-09-18T12:38:18;99693.06;;;24.82;100.00
13968;BME280;39536;52.198;9.920;2023-09-18T12:40:50;99702.06;;;24.81;100.00
13968;BME280;39536;52.198;9.920;2023-09-18T12:43:17;99699.56;;;24.87;100.00
13968;BME280;39536;52.198;9.920;2023-09-18T12:45:46;99698.91;;;24.77;100.00
13968;BME280;39536;52.198;9.920;2023-09-18T12:48:13;99696.75;;;24.89;100.00
13968;BME280;39536;52.198;9.920;2023-09-18T12:50:40;99692.25;;;24.81;100.00
13968;BME280;39536;52.198;9.920;2023-09-18T12:53:11;99702.59;;;24.93;100.00
13968;BME280;39536;52.198;9.920;2023-09-18T12:55:38;99697.84;;;24.70;100.00